createdAt,value
2023-11-24T00:01:31.522Z,4.60
2023-11-24T00:04:03.276Z,3.10
2023-11-24T00:06:34.970Z,3.00
2023-11-24T00:09:07.332Z,3.10
2023-11-24T00:11:39.173Z,3.60
2023-11-24T00:14:10.889Z,3.50
2023-11-24T00:16:42.518Z,3.10
2023-11-24T00:19:16.639Z,3.30
2023-11-24T00:21:49.033Z,3.00
2023-11-24T00:24:20.424Z,3.30
2023-11-24T00:26:53.955Z,2.90
2023-11-24T00:29:24.953Z,3.10
2023-11-24T00:31:56.098Z,3.30
2023-11-24T00:34:27.382Z,4.10
2023-11-24T00:36:59.706Z,4.40
2023-11-24T00:39:30.912Z,3.30
2023-11-24T00:42:02.263Z,4.50
2023-11-24T00:44:33.302Z,4.50
2023-11-24T00:47:06.499Z,10.80
2023-11-24T00:49:37.702Z,10.40
2023-11-24T00:52:09.632Z,5.90
2023-11-24T00:54:40.925Z,6.20
2023-11-24T00:57:12.177Z,5.00
2023-11-24T00:59:43.457Z,5.10
2023-11-24T01:02:14.584Z,5.70
2023-11-24T01:04:46.023Z,4.10
2023-11-24T01:07:17.421Z,5.20
2023-11-24T01:09:49.293Z,5.90
2023-11-24T01:12:20.513Z,3.60
2023-11-24T01:14:51.568Z,3.60
2023-11-24T01:17:23.032Z,5.10
2023-11-24T01:19:54.231Z,3.90
2023-11-24T01:22:26.067Z,3.60
2023-11-24T01:24:57.326Z,2.90
2023-11-24T01:27:31.366Z,3.80
2023-11-24T01:30:02.524Z,4.30
2023-11-24T01:32:34.077Z,4.40
2023-11-24T01:35:06.764Z,3.80
2023-11-24T01:37:37.661Z,3.60
2023-11-24T01:40:11.844Z,3.90
2023-11-24T01:42:43.620Z,3.20
2023-11-24T01:45:14.731Z,4.10
2023-11-24T01:47:48.255Z,3.50
2023-11-24T01:50:19.776Z,3.40
2023-11-24T01:52:51.430Z,4.00
2023-11-24T01:55:24.606Z,4.20
2023-11-24T01:57:57.748Z,4.10
2023-11-24T02:00:29.349Z,3.50
2023-11-24T02:03:01.839Z,5.00
2023-11-24T02:05:33.356Z,3.70
2023-11-24T02:08:05.251Z,3.00
2023-11-24T02:10:37.118Z,4.60
2023-11-24T02:13:09.481Z,3.60
2023-11-24T02:15:41.704Z,3.90
2023-11-24T02:18:13.696Z,4.60
2023-11-24T02:20:45.489Z,3.90
2023-11-24T02:23:17.573Z,3.50
2023-11-24T02:25:48.602Z,2.70
2023-11-24T02:28:19.560Z,2.90
2023-11-24T02:30:50.834Z,4.40
2023-11-24T02:33:24.107Z,4.50
2023-11-24T02:35:55.623Z,4.00
2023-11-24T02:38:26.597Z,4.30
2023-11-24T02:40:57.836Z,3.40
2023-11-24T02:43:29.754Z,5.10
2023-11-24T02:46:01.701Z,3.90
2023-11-24T02:48:33.356Z,4.60
2023-11-24T02:51:08.147Z,3.70
2023-11-24T02:53:40.969Z,3.40
2023-11-24T02:56:12.729Z,3.70
2023-11-24T02:58:44.227Z,3.40
2023-11-24T03:01:15.312Z,3.30
2023-11-24T03:03:46.913Z,2.90
2023-11-24T03:06:19.247Z,3.50
2023-11-24T03:08:50.190Z,3.90
2023-11-24T03:11:21.244Z,2.40
2023-11-24T03:13:52.194Z,4.10
2023-11-24T03:16:23.428Z,2.60
2023-11-24T03:18:55.662Z,3.50
2023-11-24T03:21:27.110Z,3.60
2023-11-24T03:23:58.328Z,4.80
2023-11-24T03:26:29.976Z,3.80
2023-11-24T03:29:01.442Z,4.80
2023-11-24T03:31:32.855Z,4.30
2023-11-24T03:34:05.113Z,4.60
2023-11-24T03:36:36.933Z,3.60
2023-11-24T03:39:08.685Z,3.30
2023-11-24T03:41:39.813Z,3.80
2023-11-24T03:44:11.150Z,3.60
2023-11-24T03:46:42.531Z,3.20
2023-11-24T03:49:13.739Z,3.20
2023-11-24T03:51:45.346Z,4.30
2023-11-24T03:54:17.194Z,3.50
2023-11-24T03:56:48.575Z,4.20
2023-11-24T03:59:19.687Z,3.80
2023-11-24T04:01:51.566Z,4.40
2023-11-24T04:04:23.168Z,4.70
2023-11-24T04:06:54.368Z,3.50
2023-11-24T04:09:26.440Z,5.00
2023-11-24T04:11:57.639Z,3.50
2023-11-24T04:14:28.985Z,4.20
2023-11-24T04:17:01.517Z,4.20
2023-11-24T04:19:32.792Z,3.80
2023-11-24T04:22:03.979Z,4.60
2023-11-24T04:24:35.052Z,3.40
2023-11-24T04:27:07.076Z,4.40
2023-11-24T04:29:38.721Z,4.00
2023-11-24T04:32:10.885Z,3.40
2023-11-24T04:34:42.444Z,4.10
2023-11-24T04:37:15.550Z,4.20
2023-11-24T04:39:47.893Z,7.10
2023-11-24T04:42:19.754Z,6.80
2023-11-24T04:44:53.175Z,6.00
2023-11-24T04:47:24.242Z,4.00
2023-11-24T04:49:55.566Z,4.50
2023-11-24T04:52:26.660Z,4.90
2023-11-24T04:54:58.061Z,4.20
2023-11-24T04:57:29.454Z,5.50
2023-11-24T05:00:00.780Z,4.80
2023-11-24T05:02:31.942Z,4.10
2023-11-24T05:05:03.533Z,3.80
2023-11-24T05:07:35.837Z,3.50
2023-11-24T05:10:10.865Z,5.90
2023-11-24T05:12:42.232Z,6.00
2023-11-24T05:15:14.497Z,5.00
2023-11-24T05:17:45.747Z,4.20
2023-11-24T05:20:19.374Z,7.50
2023-11-24T05:22:51.361Z,5.40
2023-11-24T05:25:22.344Z,5.50
2023-11-24T05:27:53.334Z,13.40
2023-11-24T05:30:24.992Z,8.60
2023-11-24T05:32:55.862Z,12.50
2023-11-24T05:35:27.114Z,7.60
2023-11-24T05:37:59.428Z,4.80
2023-11-24T05:40:30.713Z,4.70
2023-11-24T05:43:02.221Z,4.80
2023-11-24T05:45:35.887Z,4.70
2023-11-24T05:48:07.991Z,4.80
2023-11-24T05:50:40.072Z,4.80
2023-11-24T05:53:10.947Z,6.10
2023-11-24T05:55:42.259Z,7.60
2023-11-24T05:58:13.461Z,5.50
2023-11-24T06:00:45.527Z,6.30
2023-11-24T06:03:16.778Z,6.70
2023-11-24T06:05:48.065Z,5.90
2023-11-24T06:08:19.714Z,6.90
2023-11-24T06:10:51.587Z,5.20
2023-11-24T06:13:23.448Z,5.00
2023-11-24T06:15:56.072Z,5.90
2023-11-24T06:18:27.724Z,5.70
2023-11-24T06:20:59.117Z,7.60
2023-11-24T06:23:30.845Z,7.60
2023-11-24T06:26:01.718Z,5.10
2023-11-24T06:28:33.151Z,5.10
2023-11-24T06:31:04.672Z,5.40
2023-11-24T06:33:36.345Z,5.70
2023-11-24T06:36:08.602Z,5.70
2023-11-24T06:38:41.402Z,7.80
2023-11-24T06:41:13.424Z,6.90
2023-11-24T06:43:44.506Z,6.70
2023-11-24T06:46:15.576Z,14.20
2023-11-24T06:48:46.764Z,12.90
2023-11-24T06:51:19.232Z,9.70
2023-11-24T06:53:51.013Z,9.30
2023-11-24T06:56:22.664Z,6.70
2023-11-24T06:58:55.852Z,7.80
2023-11-24T07:01:34.188Z,6.70
2023-11-24T07:04:06.811Z,6.50
2023-11-24T07:06:37.958Z,7.00
2023-11-24T07:09:12.387Z,6.50
2023-11-24T07:11:44.799Z,6.40
2023-11-24T07:14:16.202Z,7.00
2023-11-24T07:16:47.909Z,6.30
2023-11-24T07:19:20.368Z,6.10
2023-11-24T07:21:51.477Z,6.90
2023-11-24T07:24:22.463Z,5.90
2023-11-24T07:26:55.136Z,5.40
2023-11-24T07:29:26.544Z,6.00
2023-11-24T07:31:57.645Z,6.90
2023-11-24T07:34:29.168Z,6.70
2023-11-24T07:37:02.182Z,11.60
2023-11-24T07:39:33.652Z,10.70
2023-11-24T07:42:05.727Z,10.20
2023-11-24T07:44:37.965Z,9.40
2023-11-24T07:47:10.035Z,8.20
2023-11-24T07:49:41.453Z,9.00
2023-11-24T07:52:13.216Z,9.20
2023-11-24T07:54:44.709Z,11.60
2023-11-24T07:57:15.832Z,10.90
2023-11-24T07:59:47.940Z,8.90
2023-11-24T08:02:19.137Z,10.00
2023-11-24T08:04:50.450Z,6.40
2023-11-24T08:07:22.959Z,11.40
2023-11-24T08:09:54.601Z,7.90
2023-11-24T08:12:25.898Z,6.50
2023-11-24T08:15:00.033Z,10.00
2023-11-24T08:17:31.468Z,7.60
2023-11-24T08:20:05.892Z,8.80
2023-11-24T08:22:37.248Z,8.70
2023-11-24T08:25:11.790Z,7.80
2023-11-24T08:27:45.839Z,8.40
2023-11-24T08:30:18.164Z,8.50
2023-11-24T08:32:50.536Z,9.10
2023-11-24T08:35:21.518Z,9.10
2023-11-24T08:37:52.955Z,7.10
2023-11-24T08:40:25.687Z,7.40
2023-11-24T08:42:59.164Z,8.60
2023-11-24T08:45:30.811Z,6.00
2023-11-24T08:48:01.910Z,7.40
2023-11-24T08:50:32.989Z,8.60
2023-11-24T08:53:06.828Z,7.40
2023-11-24T08:55:37.680Z,6.80
2023-11-24T08:58:08.642Z,7.40
2023-11-24T09:00:40.068Z,13.40
2023-11-24T09:03:11.824Z,9.90
2023-11-24T09:05:44.573Z,8.80
2023-11-24T09:08:18.403Z,8.20
2023-11-24T09:10:51.100Z,7.20
2023-11-24T09:13:23.336Z,9.00
2023-11-24T09:15:54.964Z,12.10
2023-11-24T09:18:26.917Z,15.30
2023-11-24T09:21:01.047Z,12.00
2023-11-24T09:23:32.713Z,9.30
2023-11-24T09:26:06.647Z,8.40
2023-11-24T09:28:38.836Z,8.50
2023-11-24T09:31:13.780Z,9.80
2023-11-24T09:33:45.118Z,9.10
2023-11-24T09:36:16.626Z,8.70
2023-11-24T09:38:49.499Z,9.40
2023-11-24T09:41:22.078Z,8.50
2023-11-24T09:43:53.839Z,7.20
2023-11-24T09:46:33.598Z,8.10
2023-11-24T09:49:12.281Z,9.30
2023-11-24T09:51:43.901Z,9.90
2023-11-24T09:54:19.190Z,9.50
2023-11-24T09:56:51.220Z,8.70
2023-11-24T09:59:23.650Z,7.20
2023-11-24T10:01:58.908Z,8.20
2023-11-24T10:04:30.288Z,7.40
2023-11-24T10:07:02.427Z,8.80
2023-11-24T10:09:36.575Z,6.40
2023-11-24T10:12:09.020Z,8.20
2023-11-24T10:14:44.937Z,7.80
2023-11-24T10:17:16.210Z,6.50
2023-11-24T10:19:47.181Z,10.40
2023-11-24T10:22:20.438Z,9.00
2023-11-24T10:24:51.565Z,6.60
2023-11-24T10:27:24.123Z,6.80
2023-11-24T10:29:55.309Z,7.00
2023-11-24T10:32:26.637Z,6.00
2023-11-24T10:34:59.149Z,6.00
2023-11-24T10:37:30.711Z,6.60
2023-11-24T10:40:03.723Z,5.90
2023-11-24T10:42:35.993Z,6.80
2023-11-24T10:45:11.159Z,6.70
2023-11-24T10:47:52.762Z,11.50
2023-11-24T10:50:29.294Z,24.20
2023-11-24T10:53:12.986Z,16.80
2023-11-24T10:55:45.541Z,10.90
2023-11-24T10:58:17.637Z,7.60
2023-11-24T11:00:49.612Z,6.60
2023-11-24T11:03:20.607Z,7.80
2023-11-24T11:06:05.315Z,5.60
2023-11-24T11:08:39.858Z,6.20
2023-11-24T11:11:28.780Z,6.90
2023-11-24T11:14:00.774Z,6.90
2023-11-24T11:16:32.635Z,6.80
2023-11-24T11:19:32.724Z,8.50
2023-11-24T11:22:08.398Z,5.80
2023-11-24T11:24:39.664Z,6.00
2023-11-24T11:27:27.987Z,6.70
2023-11-24T11:29:59.516Z,6.00
2023-11-24T11:32:34.070Z,6.90
2023-11-24T11:35:06.063Z,6.70
2023-11-24T11:37:37.328Z,6.30
2023-11-24T11:40:20.808Z,6.20
2023-11-24T11:43:00.317Z,6.50
2023-11-24T11:45:34.848Z,5.40
2023-11-24T11:48:10.430Z,7.00
2023-11-24T11:50:51.924Z,4.90
2023-11-24T11:53:26.721Z,6.20
2023-11-24T11:55:58.380Z,6.60
2023-11-24T11:58:30.560Z,5.70
2023-11-24T12:01:01.873Z,7.40
2023-11-24T12:03:33.505Z,6.90
2023-11-24T12:06:08.368Z,6.50
2023-11-24T12:08:40.293Z,7.60
2023-11-24T12:11:14.220Z,6.70
2023-11-24T12:13:45.550Z,6.50
2023-11-24T12:16:16.751Z,5.50
2023-11-24T12:18:54.212Z,5.90
2023-11-24T12:21:25.362Z,5.90
2023-11-24T12:24:08.323Z,5.70
2023-11-24T12:26:46.908Z,6.40
2023-11-24T12:29:18.240Z,5.90
2023-11-24T12:31:49.288Z,5.00
2023-11-24T12:34:21.969Z,5.80
2023-11-24T12:36:55.988Z,5.10
2023-11-24T12:39:31.924Z,6.00
2023-11-24T12:42:05.517Z,7.40
2023-11-24T12:44:37.994Z,7.40
2023-11-24T12:47:15.024Z,6.00
2023-11-24T12:50:02.093Z,7.20
2023-11-24T12:52:37.422Z,7.20
2023-11-24T12:55:11.847Z,6.00
2023-11-24T12:57:44.830Z,5.40
2023-11-24T13:00:18.434Z,5.10
2023-11-24T13:02:49.824Z,4.90
2023-11-24T13:05:21.407Z,4.10
2023-11-24T13:07:53.129Z,4.90
2023-11-24T13:10:24.187Z,7.20
2023-11-24T13:12:55.656Z,7.20
2023-11-24T13:15:26.853Z,7.60
2023-11-24T13:17:58.121Z,5.50
2023-11-24T13:20:33.800Z,5.80
2023-11-24T13:23:05.639Z,6.30
2023-11-24T13:25:38.040Z,5.60
2023-11-24T13:28:09.641Z,6.50
2023-11-24T13:30:41.098Z,5.40
2023-11-24T13:33:12.391Z,6.40
2023-11-24T13:35:43.787Z,5.90
2023-11-24T13:38:16.479Z,5.60
2023-11-24T13:40:48.841Z,6.30
2023-11-24T13:43:20.540Z,5.70
2023-11-24T13:45:52.806Z,5.70
2023-11-24T13:48:24.957Z,6.70
2023-11-24T13:50:58.405Z,6.20
2023-11-24T13:53:32.265Z,6.40
2023-11-24T13:56:03.328Z,6.70
2023-11-24T13:58:39.641Z,6.10
2023-11-24T14:01:11.062Z,6.10
2023-11-24T14:03:44.637Z,5.50
2023-11-24T14:06:16.766Z,7.40
2023-11-24T14:08:48.635Z,6.20
2023-11-24T14:11:20.170Z,5.40
2023-11-24T14:13:51.854Z,5.90
2023-11-24T14:16:25.007Z,4.80
2023-11-24T14:18:56.289Z,6.50
2023-11-24T14:21:27.594Z,5.40
2023-11-24T14:24:01.634Z,5.30
2023-11-24T14:26:34.564Z,6.30
2023-11-24T14:29:07.237Z,5.90
2023-11-24T14:31:38.396Z,5.80
2023-11-24T14:34:10.933Z,6.10
2023-11-24T14:36:43.650Z,6.70
2023-11-24T14:39:28.134Z,6.60
2023-11-24T14:41:59.811Z,5.50
2023-11-24T14:44:31.198Z,6.30
2023-11-24T14:47:02.882Z,7.20
2023-11-24T14:49:34.604Z,8.00
2023-11-24T14:52:09.009Z,5.60
2023-11-24T14:54:40.373Z,7.30
2023-11-24T14:57:14.145Z,6.40
2023-11-24T14:59:45.459Z,6.70
2023-11-24T15:02:18.227Z,4.90
2023-11-24T15:04:49.382Z,7.10
2023-11-24T15:07:21.118Z,6.40
2023-11-24T15:09:53.915Z,6.80
2023-11-24T15:12:28.355Z,7.00
2023-11-24T15:15:00.450Z,6.10
2023-11-24T15:17:32.199Z,7.00
2023-11-24T15:20:26.664Z,5.60
2023-11-24T15:22:59.651Z,7.40
2023-11-24T15:25:36.887Z,6.30
2023-11-24T15:28:14.039Z,6.80
2023-11-24T15:30:46.299Z,8.10
2023-11-24T15:33:19.638Z,7.90
2023-11-24T15:35:51.162Z,7.90
2023-11-24T15:38:24.293Z,12.30
2023-11-24T15:40:55.975Z,17.30
2023-11-24T15:43:27.229Z,19.40
2023-11-24T15:46:00.218Z,18.70
2023-11-24T15:48:34.220Z,19.50
2023-11-24T15:51:06.392Z,17.70
2023-11-24T15:53:37.200Z,18.20
2023-11-24T15:56:11.909Z,17.30
2023-11-24T15:58:44.715Z,17.20
2023-11-24T16:01:16.703Z,21.00
2023-11-24T16:03:47.794Z,19.10
2023-11-24T16:06:21.871Z,18.20
2023-11-24T16:08:56.510Z,26.00
2023-11-24T16:11:28.231Z,20.30
2023-11-24T16:13:59.882Z,18.60
2023-11-24T16:16:32.434Z,16.80
2023-11-24T16:19:03.445Z,13.70
2023-11-24T16:21:34.651Z,20.70
2023-11-24T16:24:06.366Z,21.10
2023-11-24T16:26:37.261Z,16.90
2023-11-24T16:29:08.695Z,13.70
2023-11-24T16:31:44.374Z,10.80
2023-11-24T16:34:16.448Z,11.10
2023-11-24T16:36:47.963Z,11.40
2023-11-24T16:39:23.930Z,10.90
2023-11-24T16:41:55.309Z,11.10
2023-11-24T16:44:26.152Z,10.10
2023-11-24T16:47:01.236Z,10.30
2023-11-24T16:49:32.456Z,9.70
2023-11-24T16:52:04.707Z,9.10
2023-11-24T16:54:36.390Z,9.40
2023-11-24T16:57:09.634Z,11.20
2023-11-24T16:59:40.636Z,9.10
2023-11-24T17:02:11.707Z,8.30
2023-11-24T17:04:43.242Z,7.60
2023-11-24T17:07:14.544Z,8.70
2023-11-24T17:09:47.372Z,7.50
2023-11-24T17:12:19.764Z,8.30
2023-11-24T17:14:51.268Z,9.50
2023-11-24T17:17:22.699Z,10.20
2023-11-24T17:19:54.197Z,9.20
2023-11-24T17:22:25.500Z,10.80
2023-11-24T17:24:57.151Z,10.40
2023-11-24T17:27:30.206Z,10.10
2023-11-24T17:30:01.945Z,10.00
2023-11-24T17:32:33.040Z,9.60
2023-11-24T17:35:07.235Z,9.30
2023-11-24T17:37:39.152Z,8.20
2023-11-24T17:40:15.852Z,8.00
2023-11-24T17:42:47.692Z,8.20
2023-11-24T17:45:19.628Z,7.50
2023-11-24T17:47:52.991Z,7.40
2023-11-24T17:50:24.806Z,7.50
2023-11-24T17:52:55.861Z,6.70
2023-11-24T17:55:27.569Z,7.70
2023-11-24T17:57:58.712Z,8.40
2023-11-24T18:00:33.371Z,6.50
2023-11-24T18:03:06.921Z,8.70
2023-11-24T18:05:38.625Z,8.10
2023-11-24T18:08:09.960Z,8.00
2023-11-24T18:10:41.273Z,9.00
2023-11-24T18:13:12.374Z,8.90
2023-11-24T18:15:43.791Z,10.00
2023-11-24T18:18:14.996Z,10.40
2023-11-24T18:20:46.924Z,9.90
2023-11-24T18:23:17.993Z,10.80
2023-11-24T18:25:51.402Z,9.60
2023-11-24T18:28:22.294Z,9.10
2023-11-24T18:30:54.471Z,10.50
2023-11-24T18:33:26.821Z,9.70
2023-11-24T18:35:58.091Z,10.00
2023-11-24T18:38:29.978Z,9.00
2023-11-24T18:41:01.208Z,10.50
2023-11-24T18:43:39.499Z,9.20
2023-11-24T18:46:12.081Z,9.00
2023-11-24T18:48:43.389Z,10.00
2023-11-24T18:51:15.717Z,10.10
2023-11-24T18:53:47.125Z,8.50
2023-11-24T18:56:22.980Z,10.90
2023-11-24T18:58:54.189Z,8.90
2023-11-24T19:01:25.316Z,8.80
2023-11-24T19:03:56.548Z,9.80
2023-11-24T19:06:28.950Z,9.40
2023-11-24T19:08:59.776Z,10.10
2023-11-24T19:11:31.171Z,10.40
2023-11-24T19:14:02.933Z,10.40
2023-11-24T19:16:34.343Z,10.10
2023-11-24T19:19:05.794Z,9.50
2023-11-24T19:21:36.900Z,10.60
2023-11-24T19:24:09.842Z,9.10
2023-11-24T19:26:40.913Z,9.80
2023-11-24T19:29:12.669Z,9.90
2023-11-24T19:31:44.042Z,10.40
2023-11-24T19:34:15.382Z,10.10
2023-11-24T19:36:46.393Z,9.80
2023-11-24T19:39:18.085Z,10.40
2023-11-24T19:41:48.952Z,11.90
2023-11-24T19:44:21.248Z,11.20
2023-11-24T19:46:52.344Z,11.60
2023-11-24T19:49:23.632Z,10.40
2023-11-24T19:51:54.713Z,10.00
2023-11-24T19:54:25.639Z,9.00
2023-11-24T19:56:56.856Z,10.30
2023-11-24T19:59:28.161Z,10.60
2023-11-24T20:01:59.974Z,11.40
2023-11-24T20:04:31.685Z,9.40
2023-11-24T20:07:03.022Z,11.50
2023-11-24T20:09:34.180Z,10.80
2023-11-24T20:12:05.455Z,9.10
2023-11-24T20:14:36.847Z,9.80
2023-11-24T20:17:09.812Z,9.90
2023-11-24T20:19:40.889Z,10.40
2023-11-24T20:22:11.815Z,11.60
2023-11-24T20:24:43.952Z,9.80
2023-11-24T20:27:15.088Z,11.10
2023-11-24T20:29:46.355Z,10.30
2023-11-24T20:32:17.916Z,10.50
2023-11-24T20:34:50.502Z,9.50
2023-11-24T20:37:21.577Z,8.50
2023-11-24T20:39:57.245Z,9.00
2023-11-24T20:42:28.427Z,9.90
2023-11-24T20:44:59.462Z,8.50
2023-11-24T20:47:31.049Z,7.80
2023-11-24T20:50:02.112Z,8.90
2023-11-24T20:52:33.225Z,8.20
2023-11-24T20:55:04.555Z,11.00
2023-11-24T20:57:35.973Z,8.30
2023-11-24T21:00:11.733Z,10.20
2023-11-24T21:02:43.463Z,10.00
2023-11-24T21:05:14.829Z,10.10
2023-11-24T21:07:46.111Z,8.70
2023-11-24T21:10:17.786Z,8.10
2023-11-24T21:12:49.387Z,8.60
2023-11-24T21:15:20.574Z,8.80
2023-11-24T21:17:51.857Z,9.40
2023-11-24T21:20:24.778Z,9.50
2023-11-24T21:22:55.784Z,7.50
2023-11-24T21:25:29.318Z,8.40
2023-11-24T21:28:01.330Z,7.80
2023-11-24T21:30:32.326Z,8.20
2023-11-24T21:33:03.505Z,10.10
2023-11-24T21:35:35.035Z,7.80
2023-11-24T21:38:06.151Z,8.00
2023-11-24T21:40:37.097Z,9.20
2023-11-24T21:43:08.147Z,7.30
2023-11-24T21:45:39.443Z,7.50
2023-11-24T21:48:11.126Z,7.60
2023-11-24T21:50:42.586Z,7.80
2023-11-24T21:53:15.025Z,7.20
2023-11-24T21:55:46.604Z,6.70
2023-11-24T21:58:19.054Z,7.70
2023-11-24T22:00:50.522Z,8.60
2023-11-24T22:03:22.312Z,8.10
2023-11-24T22:05:54.228Z,10.10
2023-11-24T22:08:25.347Z,8.50
2023-11-24T22:10:56.794Z,8.80
2023-11-24T22:13:27.981Z,7.70
2023-11-24T22:15:59.410Z,7.00
2023-11-24T22:18:32.016Z,7.70
2023-11-24T22:21:03.326Z,8.00
2023-11-24T22:23:34.408Z,5.80
2023-11-24T22:26:06.084Z,8.20
2023-11-24T22:28:37.056Z,6.60
2023-11-24T22:31:08.829Z,7.00
2023-11-24T22:33:41.033Z,7.40
2023-11-24T22:36:19.403Z,8.70
2023-11-24T22:38:51.597Z,8.30
2023-11-24T22:41:24.000Z,7.10
2023-11-24T22:43:56.787Z,8.50
2023-11-24T22:46:28.967Z,7.10
2023-11-24T22:49:00.267Z,6.90
2023-11-24T22:51:31.365Z,7.40
2023-11-24T22:54:02.356Z,4.60
2023-11-24T22:56:34.049Z,7.00
2023-11-24T22:59:05.643Z,6.20
2023-11-24T23:01:36.982Z,6.30
2023-11-24T23:04:09.018Z,7.70
2023-11-24T23:06:40.360Z,7.70
2023-11-24T23:09:11.508Z,6.20
2023-11-24T23:11:42.561Z,8.80
2023-11-24T23:14:14.389Z,7.20
2023-11-24T23:16:46.081Z,5.60
2023-11-24T23:19:17.090Z,6.70
2023-11-24T23:21:50.156Z,6.30
2023-11-24T23:24:21.056Z,5.80
2023-11-24T23:26:52.173Z,7.30
2023-11-24T23:29:23.283Z,7.70
2023-11-24T23:31:54.723Z,6.70
2023-11-24T23:34:26.696Z,6.00
2023-11-24T23:36:58.220Z,5.30
2023-11-24T23:39:29.773Z,5.70
2023-11-24T23:42:03.734Z,4.70
2023-11-24T23:44:36.968Z,4.80
2023-11-24T23:47:08.458Z,5.20
2023-11-24T23:49:40.448Z,3.60
2023-11-24T23:52:12.300Z,3.90
2023-11-24T23:54:43.832Z,4.90
2023-11-24T23:57:15.606Z,3.80
2023-11-24T23:59:47.070Z,5.00
